Time;durP1;ratioP1;P1;durP2;ratioP2;P2;SDS_P1;SDS_P2;PMS_P1;PMS_P2;Temp;Humidity;BMP_temperature;BMP_pressure;BME280_temperature;BME280_humidity;BME280_pressure;Samples;Min_cycle;Max_cycle;Signal;HPM_P1;HPM_P2
2021/01/19 00:01:55;;;;;;;5.40;2.75;;;;;;;0.18;70.98;96340.69;4967132;28;20122;-50
2021/01/19 00:04:22;;;;;;;6.35;3.45;;;;;;;0.32;70.68;96334.91;4973019;28;20061;-50
2021/01/19 00:06:48;;;;;;;5.28;3.22;;;;;;;0.30;70.56;96329.88;4972909;28;20082;-50
2021/01/19 00:09:15;;;;;;;7.20;2.45;;;;;;;0.37;70.33;96340.28;4962129;28;20051;-50
2021/01/19 00:11:41;;;;;;;5.00;2.88;;;;;;;0.20;70.65;96341.25;4952279;29;20477;-51
2021/01/19 00:14:07;;;;;;;7.88;3.20;;;;;;;-0.26;71.20;96295.69;4952424;29;20047;-49
2021/01/19 00:16:34;;;;;;;8.50;3.00;;;;;;;0.08;71.01;96322.00;4953390;28;20106;-51
2021/01/19 00:19:00;;;;;;;5.25;2.72;;;;;;;0.06;71.04;96325.97;4966778;28;20047;-51
2021/01/19 00:21:26;;;;;;;6.60;2.90;;;;;;;0.07;71.20;96319.63;4953333;28;20105;-51
2021/01/19 00:23:53;;;;;;;4.60;2.80;;;;;;;-0.03;71.19;96313.16;4957974;28;20066;-50
2021/01/19 00:26:19;;;;;;;5.25;2.90;;;;;;;-0.09;71.67;96314.16;4971870;28;20082;-48
2021/01/19 00:28:45;;;;;;;8.05;4.03;;;;;;;-0.14;71.84;96300.81;4960967;28;20043;-50
2021/01/19 00:31:12;;;;;;;4.80;2.80;;;;;;;-0.10;71.18;96301.13;4953623;28;20101;-52
2021/01/19 00:33:41;;;;;;;5.32;2.72;;;;;;;-0.12;72.06;96301.38;4968097;28;20058;-49
2021/01/19 00:36:08;;;;;;;5.70;3.00;;;;;;;-0.05;71.86;96298.50;4968341;28;20571;-49
2021/01/19 00:38:34;;;;;;;5.95;3.30;;;;;;;-0.20;72.35;96304.50;4966651;28;20078;-48
2021/01/19 00:41:01;;;;;;;6.38;3.28;;;;;;;-0.25;72.21;96296.50;4972407;28;20473;-52
2021/01/19 00:43:28;;;;;;;5.40;3.22;;;;;;;-0.35;72.53;96299.88;4971104;28;20109;-52
2021/01/19 00:45:54;;;;;;;6.13;3.33;;;;;;;-0.21;72.11;96294.13;4953048;28;20113;-51
2021/01/19 00:48:20;;;;;;;5.88;3.30;;;;;;;-0.01;71.75;96288.94;4964721;28;20460;-52
2021/01/19 00:50:47;;;;;;;7.05;3.28;;;;;;;-0.01;71.85;96294.25;4955144;28;20131;-50
2021/01/19 00:53:13;;;;;;;7.75;3.15;;;;;;;-0.15;71.78;96293.91;4967853;28;20082;-48
2021/01/19 00:55:40;;;;;;;5.22;3.60;;;;;;;-0.21;72.08;96294.13;4971244;28;20486;-48
2021/01/19 00:58:07;;;;;;;6.95;3.38;;;;;;;-0.21;72.18;96289.59;4969725;28;20096;-49
2021/01/19 01:00:37;;;;;;;5.53;3.38;;;;;;;-0.24;72.41;96285.59;4970972;28;20055;-52
2021/01/19 01:03:04;;;;;;;6.15;3.20;;;;;;;-0.39;72.99;96284.66;4962467;28;20082;-49
2021/01/19 01:05:30;;;;;;;8.27;3.75;;;;;;;-0.32;72.91;96272.78;4952814;28;20146;-47
2021/01/19 01:07:58;;;;;;;6.80;3.55;;;;;;;-0.48;73.45;96271.06;4964951;28;20389;-51
2021/01/19 01:10:25;;;;;;;6.85;3.80;;;;;;;-0.30;72.79;96275.97;4971970;28;20051;-50
2021/01/19 01:12:51;;;;;;;6.45;3.65;;;;;;;-0.53;73.37;96281.63;4971603;28;20062;-56
2021/01/19 01:15:33;;;;;;;6.30;3.75;;;;;;;-0.51;73.60;96285.66;4972136;28;20497;-53
2021/01/19 01:17:59;;;;;;;6.90;3.65;;;;;;;-0.51;73.48;96284.84;4970520;28;20070;-51
2021/01/19 01:20:26;;;;;;;9.20;4.07;;;;;;;-0.58;73.77;96287.72;4957608;28;20513;-50
2021/01/19 01:22:52;;;;;;;6.72;3.72;;;;;;;-0.68;73.79;96253.09;4952761;28;20417;-48
2021/01/19 01:25:19;;;;;;;7.22;3.90;;;;;;;-0.39;73.03;96288.16;4952656;28;20513;-49
2021/01/19 01:27:47;;;;;;;7.63;4.00;;;;;;;-0.69;73.43;96263.97;4968701;28;20134;-52
2021/01/19 01:30:16;;;;;;;7.75;3.78;;;;;;;-0.45;73.39;96285.72;4952907;28;20048;-48
2021/01/19 01:32:50;;;;;;;8.73;4.03;;;;;;;-0.20;72.26;96291.19;4968027;28;20055;-50
2021/01/19 01:35:18;;;;;;;9.45;4.53;;;;;;;-0.35;72.26;96281.28;4971945;28;20504;-52
2021/01/19 01:37:46;;;;;;;7.90;4.25;;;;;;;-0.36;72.20;96290.28;4961362;28;20106;-48
2021/01/19 01:40:16;;;;;;;9.52;3.83;;;;;;;-0.41;72.70;96286.78;4952447;28;20106;-51
2021/01/19 01:42:53;;;;;;;6.60;4.18;;;;;;;-0.33;72.99;96287.13;4967732;28;20051;-48
2021/01/19 01:45:22;;;;;;;5.72;3.50;;;;;;;-0.39;72.76;96298.78;4968191;28;20051;-49
2021/01/19 01:47:50;;;;;;;8.68;4.03;;;;;;;-0.44;73.24;96289.97;4971881;28;20082;-49
2021/01/19 01:50:17;;;;;;;5.68;3.35;;;;;;;-0.48;72.91;96294.97;4962069;28;20712;-49
2021/01/19 01:52:44;;;;;;;6.30;3.72;;;;;;;-0.56;73.13;96293.56;4974395;28;20133;-48
2021/01/19 01:55:11;;;;;;;7.38;4.07;;;;;;;-0.55;73.13;96289.09;4974985;28;20157;-51
2021/01/19 01:57:38;;;;;;;6.60;3.70;;;;;;;-0.41;72.48;96282.28;4970919;28;20069;-50
2021/01/19 02:00:10;;;;;;;6.18;3.85;;;;;;;-0.40;71.91;96278.56;4975149;28;20055;-51
2021/01/19 02:03:03;;;;;;;6.95;3.95;;;;;;;-0.32;71.86;96275.44;4973201;28;20130;-51
2021/01/19 02:05:29;;;;;;;6.43;3.45;;;;;;;-1.08;72.48;96184.44;4974575;28;20081;-49
2021/01/19 02:08:28;;;;;;;7.00;4.10;;;;;;;-0.40;72.01;96269.78;4965961;28;20059;-49
2021/01/19 02:11:23;;;;;;;6.00;3.50;;;;;;;-0.22;71.35;96261.41;4974364;28;20059;-49
2021/01/19 02:14:11;;;;;;;6.18;4.13;;;;;;;-0.28;71.12;96249.16;4974044;28;20473;-48
2021/01/19 02:16:57;;;;;;;6.32;3.25;;;;;;;-0.29;70.74;96253.66;4974309;28;20050;-47
2021/01/19 02:19:42;;;;;;;6.35;3.42;;;;;;;-0.38;71.34;96252.53;4968019;28;20055;-47
2021/01/19 02:22:39;;;;;;;7.30;3.65;;;;;;;-0.33;71.32;96243.78;4963526;28;20097;-50
2021/01/19 02:25:30;;;;;;;6.80;3.65;;;;;;;-0.36;71.92;96245.09;4972989;28;20110;-49
2021/01/19 02:28:15;;;;;;;6.22;3.30;;;;;;;-0.50;72.24;96244.72;4957646;28;20142;-48
2021/01/19 02:30:51;;;;;;;7.05;3.70;;;;;;;-0.58;72.94;96242.53;4974102;28;20460;-49
2021/01/19 02:33:25;;;;;;;6.15;3.72;;;;;;;-0.63;73.05;96239.03;4974478;28;20531;-47
2021/01/19 02:36:22;;;;;;;6.00;3.70;;;;;;;-0.53;72.80;96233.78;4962145;28;20122;-47
2021/01/19 02:38:58;;;;;;;7.45;4.70;;;;;;;-0.61;73.30;96231.63;4967842;28;20043;-49
2021/01/19 02:41:26;;;;;;;7.15;3.90;;;;;;;-0.68;73.69;96233.66;4974018;28;20665;-50
2021/01/19 02:44:21;;;;;;;6.78;4.07;;;;;;;-0.77;73.92;96234.13;4962064;28;20548;-51
2021/01/19 02:46:52;;;;;;;10.07;3.70;;;;;;;-1.05;73.97;96205.19;4969505;28;20070;-51
2021/01/19 02:49:19;;;;;;;8.20;3.88;;;;;;;-0.53;73.14;96231.13;4968591;28;20062;-48
2021/01/19 02:51:47;;;;;;;6.70;3.67;;;;;;;-0.72;73.63;96238.69;4970436;28;20054;-50
2021/01/19 02:54:15;;;;;;;7.60;3.35;;;;;;;-0.76;73.79;96229.63;4995150;23;20142;-50
2021/01/19 02:57:06;;;;;;;7.43;3.75;;;;;;;-0.67;73.64;96229.97;4971818;28;20461;-49
2021/01/19 03:00:10;;;;;;;6.25;3.70;;;;;;;-0.76;73.97;96227.75;4971763;28;20054;-47
2021/01/19 03:02:38;;;;;;;6.45;3.67;;;;;;;-0.68;73.19;96231.00;4972920;28;20437;-48
2021/01/19 03:05:08;;;;;;;7.47;4.13;;;;;;;-0.73;73.60;96224.59;4965749;28;20122;-49
2021/01/19 03:07:40;;;;;;;7.65;4.20;;;;;;;-0.70;72.97;96196.72;4953633;28;20047;-48
2021/01/19 03:10:07;;;;;;;6.95;3.70;;;;;;;-0.61;72.96;96215.69;4972682;28;20070;-51
2021/01/19 03:12:35;;;;;;;7.00;3.33;;;;;;;-0.58;72.36;96221.28;4993136;28;20120;-50
2021/01/19 03:15:03;;;;;;;7.07;3.70;;;;;;;-0.71;73.02;96227.03;4970226;28;20075;-48
2021/01/19 03:17:30;;;;;;;6.80;4.15;;;;;;;-0.74;73.21;96222.22;4953860;28;20085;-48
2021/01/19 03:19:56;;;;;;;6.57;3.85;;;;;;;-0.90;73.96;96226.59;4970092;28;20137;-51
2021/01/19 03:22:23;;;;;;;6.53;3.70;;;;;;;-0.87;73.97;96222.63;4991472;28;20061;-48
2021/01/19 03:24:49;;;;;;;10.15;3.90;;;;;;;-0.77;73.52;96212.88;4990291;28;20534;-48
2021/01/19 03:27:15;;;;;;;7.00;3.78;;;;;;;-0.84;73.64;96211.50;4981920;28;20460;-49
2021/01/19 03:29:41;;;;;;;7.60;3.45;;;;;;;-0.88;73.53;96205.88;4953269;28;20130;-49
2021/01/19 03:32:08;;;;;;;8.88;4.18;;;;;;;-0.96;74.00;96222.28;4953693;28;20054;-51
2021/01/19 03:34:34;;;;;;;6.20;3.58;;;;;;;-0.97;74.24;96210.84;4957493;28;20046;-48
2021/01/19 03:37:01;;;;;;;7.03;4.03;;;;;;;-0.71;73.17;96205.75;4962258;28;20461;-48
2021/01/19 03:39:28;;;;;;;7.30;3.50;;;;;;;-0.82;73.47;96210.19;4955422;28;20047;-50
2021/01/19 03:41:55;;;;;;;6.30;3.67;;;;;;;-0.87;73.82;96210.16;4992552;28;20066;-49
2021/01/19 03:44:21;;;;;;;6.88;3.78;;;;;;;-0.89;73.84;96198.16;4985533;28;20059;-52
2021/01/19 03:46:48;;;;;;;9.38;4.40;;;;;;;-0.95;74.06;96194.66;4953867;28;20063;-52
2021/01/19 03:49:14;;;;;;;8.68;4.30;;;;;;;-0.78;73.45;96189.22;4952845;28;20186;-52
2021/01/19 03:51:40;;;;;;;9.13;3.75;;;;;;;-0.61;73.06;96189.09;4990639;28;20781;-50
2021/01/19 03:54:07;;;;;;;6.80;3.92;;;;;;;-0.49;72.39;96184.38;4990281;28;20141;-48
2021/01/19 03:56:33;;;;;;;7.03;4.25;;;;;;;-0.44;72.03;96191.59;4989790;28;20447;-50
2021/01/19 03:59:00;;;;;;;7.05;4.00;;;;;;;-0.55;72.21;96191.53;4973857;28;20063;-48
2021/01/19 04:01:26;;;;;;;10.55;4.60;;;;;;;-0.90;73.26;96194.72;4990352;28;20086;-51
2021/01/19 04:03:52;;;;;;;6.97;4.15;;;;;;;-0.89;73.53;96187.53;4991965;28;20570;-50
2021/01/19 04:06:19;;;;;;;7.03;4.22;;;;;;;-0.90;73.70;96178.78;4989025;28;20097;-49
2021/01/19 04:08:45;;;;;;;6.68;4.22;;;;;;;-0.98;74.38;96180.03;4965360;28;20174;-49
2021/01/19 04:11:12;;;;;;;9.75;4.20;;;;;;;-1.15;74.85;96173.25;4983153;28;20050;-50
2021/01/19 04:13:38;;;;;;;7.88;4.75;;;;;;;-1.09;74.69;96159.75;4990448;28;20058;-50
2021/01/19 04:16:05;;;;;;;9.43;4.75;;;;;;;-1.06;74.72;96182.34;4991410;28;20156;-52
2021/01/19 04:18:31;;;;;;;8.55;4.50;;;;;;;-1.10;74.67;96176.75;4970575;28;20556;-49
2021/01/19 04:20:58;;;;;;;8.23;4.20;;;;;;;-1.12;74.88;96175.41;4953544;28;20504;-51
2021/01/19 04:23:24;;;;;;;7.85;4.45;;;;;;;-0.87;73.98;96172.97;4953064;28;20530;-49
2021/01/19 04:25:51;;;;;;;9.30;4.68;;;;;;;-0.80;73.54;96176.19;4988951;28;20085;-50
2021/01/19 04:28:17;;;;;;;11.38;5.28;;;;;;;-0.88;73.70;96171.34;4967686;28;20134;-50
2021/01/19 04:30:44;;;;;;;6.45;3.85;;;;;;;-0.92;73.78;96162.28;4990723;28;20132;-50
2021/01/19 04:33:14;;;;;;;12.45;4.60;;;;;;;-0.97;73.99;96165.72;4991510;28;20088;-49
2021/01/19 04:35:44;;;;;;;8.63;4.68;;;;;;;-1.01;73.97;96158.47;4961943;28;20059;-48
2021/01/19 04:38:11;;;;;;;9.50;5.00;;;;;;;-1.08;74.97;96168.50;4957952;28;20046;-49
2021/01/19 04:40:38;;;;;;;8.80;4.90;;;;;;;-1.27;75.48;96155.63;4989890;28;20102;-48
2021/01/19 04:43:05;;;;;;;8.55;4.63;;;;;;;-1.08;74.89;96168.50;4988423;28;20050;-50
2021/01/19 04:45:32;;;;;;;7.93;5.00;;;;;;;-0.98;74.36;96155.31;4991525;28;20116;-49
2021/01/19 04:48:01;;;;;;;7.25;4.55;;;;;;;-1.20;74.53;96127.00;4990528;28;20062;-49
2021/01/19 04:50:31;;;;;;;7.25;4.20;;;;;;;-1.09;74.14;96141.16;4961737;28;20055;-51
2021/01/19 04:53:02;;;;;;;6.72;4.00;;;;;;;-1.05;74.45;96136.16;4966947;28;20050;-51
2021/01/19 04:55:28;;;;;;;7.78;4.25;;;;;;;-1.10;74.43;96142.22;4991549;28;20050;-49
2021/01/19 04:57:59;;;;;;;7.75;4.38;;;;;;;-1.26;74.74;96138.63;4989166;28;20113;-49
2021/01/19 05:00:31;;;;;;;8.55;4.38;;;;;;;-1.21;74.91;96141.31;4960781;28;20051;-50
2021/01/19 05:03:24;;;;;;;6.60;3.78;;;;;;;-1.23;74.57;96135.47;4965196;28;20057;-48
2021/01/19 05:05:56;;;;;;;5.70;3.47;;;;;;;-1.44;75.40;96133.69;4991452;28;20062;-48
2021/01/19 05:08:55;;;;;;;6.15;3.55;;;;;;;-1.40;75.04;96142.72;4984733;28;20296;-48
2021/01/19 05:11:24;;;;;;;6.70;3.88;;;;;;;-1.39;74.86;96124.97;4983446;28;20078;-52
2021/01/19 05:13:59;;;;;;;6.55;3.78;;;;;;;-1.32;74.30;96120.25;4989364;28;20082;-49
2021/01/19 05:16:28;;;;;;;6.32;3.55;;;;;;;-1.24;73.97;96120.59;4975050;28;20055;-48
2021/01/19 05:18:55;;;;;;;8.38;3.40;;;;;;;-1.27;73.61;96117.63;4972877;28;20042;-48
2021/01/19 05:21:21;;;;;;;6.22;3.03;;;;;;;-1.37;74.11;96106.94;4952513;28;20102;-48
2021/01/19 05:23:48;;;;;;;6.50;3.60;;;;;;;-1.18;73.06;96101.00;4991651;28;20078;-48
2021/01/19 05:26:16;;;;;;;6.38;3.15;;;;;;;-1.16;72.66;96106.06;4993818;28;20141;-48
2021/01/19 05:28:53;;;;;;;6.10;2.97;;;;;;;-0.92;72.00;96100.41;4974434;28;20051;-48
2021/01/19 05:31:21;;;;;;;5.75;2.95;;;;;;;-0.95;70.83;96102.50;4956069;28;20106;-48
2021/01/19 05:34:06;;;;;;;5.30;2.97;;;;;;;-1.03;71.12;96096.88;4992603;28;20140;-48
2021/01/19 05:36:34;;;;;;;5.72;2.88;;;;;;;-1.02;71.38;96106.44;4992354;28;20054;-49
2021/01/19 05:39:03;;;;;;;4.75;2.42;;;;;;;-0.97;70.41;96098.50;4993607;28;20531;-50
2021/01/19 05:41:40;;;;;;;4.55;2.80;;;;;;;-1.15;71.21;96096.25;4991889;28;20055;-49
2021/01/19 05:44:29;;;;;;;5.70;2.67;;;;;;;-0.95;70.73;96093.72;4994656;28;20681;-49
2021/01/19 05:46:58;;;;;;;4.95;2.53;;;;;;;-0.97;69.60;96094.00;4974223;28;20046;-47
2021/01/19 05:49:38;;;;;;;5.03;2.60;;;;;;;-1.16;70.31;96090.13;4981156;28;20047;-51
2021/01/19 05:52:13;;;;;;;3.78;2.22;;;;;;;-1.19;70.28;96090.63;4969352;28;20053;-49
2021/01/19 05:54:44;;;;;;;4.93;2.55;;;;;;;-1.43;71.30;96088.31;4994305;28;20424;-47
2021/01/19 05:57:21;;;;;;;5.30;2.33;;;;;;;-1.43;71.27;96083.03;4994388;28;20348;-48
2021/01/19 05:59:53;;;;;;;4.28;2.08;;;;;;;-1.40;71.40;96076.38;4990532;28;20525;-48
2021/01/19 06:02:24;;;;;;;6.25;2.25;;;;;;;-1.14;69.90;96081.91;4979151;28;20654;-49
2021/01/19 06:04:52;;;;;;;6.00;2.20;;;;;;;-1.09;70.11;96087.25;4988831;28;20058;-49
2021/01/19 06:07:26;;;;;;;5.18;2.33;;;;;;;-0.94;68.85;96092.69;4969740;28;20129;-49
2021/01/19 06:09:53;;;;;;;5.75;2.47;;;;;;;-0.98;68.67;96078.31;4983153;28;20121;-50
2021/01/19 06:12:20;;;;;;;4.57;2.15;;;;;;;-1.02;68.92;96082.53;4994217;28;20133;-50
2021/01/19 06:14:53;;;;;;;4.03;2.13;;;;;;;-1.12;69.66;96071.84;4970203;28;20484;-49
2021/01/19 06:17:22;;;;;;;4.72;2.55;;;;;;;-1.20;69.65;96068.59;4955458;28;20093;-52
2021/01/19 06:19:53;;;;;;;4.25;2.30;;;;;;;-0.97;68.77;96074.63;4966793;28;20051;-49
2021/01/19 06:22:22;;;;;;;5.28;2.33;;;;;;;-1.09;69.21;96066.03;4955352;28;20429;-50
2021/01/19 06:24:52;;;;;;;5.35;2.25;;;;;;;-1.04;68.37;96063.38;4988136;28;20050;-49
2021/01/19 06:27:24;;;;;;;4.68;2.17;;;;;;;-1.06;67.83;96060.19;4981183;28;20071;-46
2021/01/19 06:30:00;;;;;;;2.83;1.90;;;;;;;-1.21;67.91;96053.72;4986946;28;20046;-49
2021/01/19 06:32:29;;;;;;;4.50;1.80;;;;;;;-1.08;67.80;96057.00;4993564;28;20058;-47
2021/01/19 06:34:57;;;;;;;4.60;1.85;;;;;;;-1.26;67.96;96032.44;4992791;28;20483;-51
2021/01/19 06:37:26;;;;;;;5.32;2.30;;;;;;;-1.31;68.35;96035.06;4966275;28;20059;-48
2021/01/19 06:40:00;;;;;;;3.83;2.08;;;;;;;-1.30;68.04;96031.38;4992697;28;20137;-54
2021/01/19 06:42:32;;;;;;;4.47;2.60;;;;;;;-1.47;69.19;96041.31;4984966;28;20058;-47
2021/01/19 06:45:02;;;;;;;3.72;2.03;;;;;;;-1.38;68.63;96034.47;4954711;28;20098;-51
2021/01/19 06:47:28;;;;;;;8.73;3.35;;;;;;;-1.25;67.87;96033.25;4966606;28;20058;-49
2021/01/19 06:50:06;;;;;;;6.00;2.45;;;;;;;-1.27;68.64;96030.03;4971038;28;20106;-48
2021/01/19 06:52:41;;;;;;;4.70;2.67;;;;;;;-1.25;68.67;96022.63;4964941;28;20054;-49
2021/01/19 06:55:17;;;;;;;5.07;2.58;;;;;;;-1.23;68.57;96017.88;4973271;28;20141;-51
2021/01/19 06:57:47;;;;;;;4.35;2.53;;;;;;;-1.06;68.41;96017.72;4975575;28;20050;-51
2021/01/19 07:00:20;;;;;;;3.33;1.83;;;;;;;-1.58;68.34;95997.97;4974004;28;20046;-50
2021/01/19 07:02:53;;;;;;;4.93;2.20;;;;;;;-1.67;69.43;96015.41;4973349;28;20508;-50
2021/01/19 07:05:21;;;;;;;3.78;2.22;;;;;;;-1.71;69.48;96012.44;4972793;28;20363;-47
2021/01/19 07:07:54;;;;;;;6.68;2.40;;;;;;;-1.65;69.73;96014.09;4976372;28;20046;-48
2021/01/19 07:10:49;;;;;;;4.87;2.70;;;;;;;-1.93;70.24;96004.56;4974617;28;20071;-50
2021/01/19 07:13:22;;;;;;;9.43;3.00;;;;;;;-1.67;69.92;96007.44;4980300;28;20303;-46
2021/01/19 07:15:57;;;;;;;4.22;2.42;;;;;;;-1.82;69.69;95997.50;4975114;28;20057;-47
2021/01/19 07:18:44;;;;;;;7.03;2.95;;;;;;;-1.75;70.00;95994.66;4977856;28;20062;-47
2021/01/19 07:21:16;;;;;;;5.68;3.13;;;;;;;-1.51;68.87;95995.09;4963990;28;20055;-49
2021/01/19 07:23:48;;;;;;;6.32;3.28;;;;;;;-1.32;68.98;95991.00;4984169;28;20570;-49
2021/01/19 07:26:31;;;;;;;6.40;3.00;;;;;;;-1.02;68.69;95992.25;4975071;28;20054;-50
2021/01/19 07:28:58;;;;;;;6.88;2.53;;;;;;;-1.00;66.42;95984.84;4974858;28;20066;-47
2021/01/19 07:31:25;;;;;;;5.75;2.50;;;;;;;-1.43;67.70;95978.69;4974026;28;20046;-48
2021/01/19 07:33:58;;;;;;;7.57;4.07;;;;;;;-1.03;66.45;95977.38;4970461;28;20054;-48
2021/01/19 07:36:26;;;;;;;12.00;5.07;;;;;;;-0.97;66.72;95973.69;4971110;28;20089;-46
2021/01/19 07:38:53;;;;;;;9.05;5.00;;;;;;;-0.89;66.27;95975.84;4970481;28;20094;-47
2021/01/19 07:41:32;;;;;;;6.15;3.13;;;;;;;-0.88;66.05;95966.81;4968986;28;20578;-49
2021/01/19 07:43:59;;;;;;;5.18;2.65;;;;;;;-1.00;66.88;95959.06;4968959;28;20050;-48
2021/01/19 07:46:40;;;;;;;4.10;2.55;;;;;;;-1.10;65.60;95947.59;4974657;28;20058;-50
2021/01/19 07:49:09;;;;;;;7.43;4.10;;;;;;;-1.28;66.05;95951.47;4970602;28;20710;-51
2021/01/19 07:51:45;;;;;;;8.63;4.18;;;;;;;-1.20;66.11;95949.13;4976598;28;20184;-49
2021/01/19 07:54:28;;;;;;;10.90;5.80;;;;;;;-1.30;66.56;95959.69;4970261;28;20046;-49
2021/01/19 07:56:55;;;;;;;7.47;3.67;;;;;;;-1.35;66.68;95943.72;4964535;28;20046;-50
2021/01/19 07:59:22;;;;;;;11.63;6.10;;;;;;;-1.19;66.21;95948.06;4970428;28;20050;-51
2021/01/19 08:01:57;;;;;;;14.45;8.05;;;;;;;-1.26;66.32;95942.19;4971277;28;20094;-49
2021/01/19 08:04:32;;;;;;;12.00;6.75;;;;;;;-1.35;66.54;95924.34;4971154;28;20074;-51
2021/01/19 08:07:19;;;;;;;11.85;8.02;;;;;;;-1.16;66.36;95928.19;4959420;28;20051;-52
2021/01/19 08:09:46;;;;;;;10.93;7.35;;;;;;;-0.98;65.42;95926.94;4972263;28;20126;-50
2021/01/19 08:12:17;;;;;;;13.63;7.55;;;;;;;-0.88;65.36;95918.22;4969755;28;20055;-52
2021/01/19 08:14:46;;;;;;;12.05;6.65;;;;;;;-0.72;64.85;95928.63;4972471;28;20069;-53
2021/01/19 08:17:13;;;;;;;5.50;3.75;;;;;;;-0.55;64.38;95917.81;4981287;28;20052;-48
2021/01/19 08:19:45;;;;;;;9.68;5.28;;;;;;;-0.39;63.79;95926.63;4969258;28;20102;-54
2021/01/19 08:22:13;;;;;;;5.05;3.20;;;;;;;-0.20;63.71;95918.94;4971952;28;20062;-49
2021/01/19 08:24:42;;;;;;;4.68;2.88;;;;;;;-0.11;61.92;95919.22;4971826;28;20507;-49
2021/01/19 08:27:09;;;;;;;3.90;2.40;;;;;;;-0.15;61.95;95920.81;4963063;28;20517;-50
2021/01/19 08:29:38;;;;;;;16.35;8.20;;;;;;;-0.39;62.50;95900.03;4975735;28;20085;-48
2021/01/19 08:32:08;;;;;;;9.10;4.13;;;;;;;-0.44;62.96;95909.84;4975777;28;20070;-54
2021/01/19 08:34:38;;;;;;;21.02;10.50;;;;;;;-0.79;64.29;95893.53;4986102;28;20054;-47
2021/01/19 08:37:04;;;;;;;14.98;7.18;;;;;;;-0.45;63.20;95909.06;4976810;28;20477;-50
2021/01/19 08:39:31;;;;;;;14.07;8.65;;;;;;;-0.35;62.90;95917.06;4972444;28;20522;-50
2021/01/19 08:41:58;;;;;;;6.05;3.70;;;;;;;-0.60;62.27;95907.16;4971387;28;20416;-50
2021/01/19 08:44:33;;;;;;;5.65;3.15;;;;;;;-0.48;62.21;95902.41;4971334;28;21999;-49
2021/01/19 08:47:00;;;;;;;8.73;4.15;;;;;;;-0.11;61.31;95909.38;4972677;28;20055;-49
2021/01/19 08:49:33;;;;;;;3.97;2.15;;;;;;;-0.42;61.85;95903.22;4966521;28;20167;-47
2021/01/19 08:52:00;;;;;;;2.75;1.67;;;;;;;-0.54;61.90;95876.09;4972576;28;20062;-50
2021/01/19 08:54:30;;;;;;;3.25;2.15;;;;;;;-0.57;62.89;95887.25;4972510;28;20055;-49
2021/01/19 08:57:25;;;;;;;5.35;2.25;;;;;;;-0.30;62.35;95885.16;4974560;28;20157;-57
2021/01/19 09:00:12;;;;;;;2.80;1.70;;;;;;;-0.05;61.59;95886.25;4915908;29;20127;-52
2021/01/19 09:02:38;;;;;;;3.38;1.88;;;;;;;0.08;60.89;95882.25;4918410;29;20060;-52
2021/01/19 09:05:06;;;;;;;5.60;2.60;;;;;;;-0.02;61.18;95880.41;4918953;29;20132;-51
2021/01/19 09:07:34;;;;;;;3.47;1.60;;;;;;;0.15;60.75;95883.56;4918124;29;20059;-50
2021/01/19 09:10:02;;;;;;;5.32;1.70;;;;;;;0.27;60.11;95878.00;4918383;29;20107;-50
2021/01/19 09:12:44;;;;;;;4.32;1.80;;;;;;;0.29;59.92;95877.72;4918911;29;20044;-50
2021/01/19 09:15:14;;;;;;;2.90;1.50;;;;;;;0.02;60.44;95883.31;4917329;29;20045;-47
2021/01/19 09:17:40;;;;;;;3.40;1.60;;;;;;;0.09;60.10;95883.84;4918666;29;20096;-49
2021/01/19 09:20:08;;;;;;;3.28;2.00;;;;;;;-0.10;60.36;95854.31;4917472;29;20113;-51
2021/01/19 09:22:36;;;;;;;3.45;1.75;;;;;;;0.05;59.44;95878.25;4933588;29;20510;-48
2021/01/19 09:25:03;;;;;;;2.63;1.38;;;;;;;-0.34;61.09;95860.16;4918852;29;20052;-49
2021/01/19 09:27:30;;;;;;;3.80;1.83;;;;;;;-0.06;60.67;95860.72;4932984;29;20426;-47
2021/01/19 09:30:12;;;;;;;3.50;1.92;;;;;;;0.30;60.00;95874.78;4916749;29;20076;-48
2021/01/19 09:32:40;;;;;;;3.72;1.92;;;;;;;0.39;58.68;95867.88;4914688;29;20510;-50
2021/01/19 09:35:08;;;;;;;5.78;2.38;;;;;;;0.41;59.67;95862.25;4916624;29;20066;-48
2021/01/19 09:37:34;;;;;;;2.78;1.63;;;;;;;0.78;58.87;95867.25;4914643;29;20059;-49
2021/01/19 09:40:02;;;;;;;5.43;2.60;;;;;;;0.84;58.27;95860.00;4913556;29;20076;-52
2021/01/19 09:42:29;;;;;;;19.13;9.38;;;;;;;0.77;58.90;95859.50;4917997;29;20059;-49
2021/01/19 09:44:56;;;;;;;15.90;7.40;;;;;;;0.84;58.16;95852.03;4914487;29;20063;-51
2021/01/19 09:47:25;;;;;;;7.22;3.25;;;;;;;0.79;57.44;95838.75;4917700;29;20052;-48
2021/01/19 09:49:53;;;;;;;4.85;2.20;;;;;;;0.49;58.33;95840.44;4923214;29;20056;-50
2021/01/19 09:52:29;;;;;;;5.95;2.70;;;;;;;0.64;57.68;95832.38;4916144;29;20056;-50
2021/01/19 09:55:13;;;;;;;4.03;2.30;;;;;;;0.85;57.41;95827.00;4916698;29;20051;-49
2021/01/19 09:57:40;;;;;;;4.72;2.30;;;;;;;0.73;58.27;95823.84;4913240;29;20048;-47
2021/01/19 10:00:09;;;;;;;4.80;2.72;;;;;;;1.07;57.92;95811.44;4914374;29;20076;-47
2021/01/19 10:02:40;;;;;;;6.75;3.75;;;;;;;1.10;57.13;95791.44;4915265;29;20068;-50
2021/01/19 10:05:07;;;;;;;4.70;2.97;;;;;;;1.33;55.63;95784.63;4912501;29;20498;-48
2021/01/19 10:07:34;;;;;;;5.72;2.03;;;;;;;1.63;55.29;95803.09;4913817;29;20107;-47
2021/01/19 10:10:09;;;;;;;3.47;1.90;;;;;;;1.83;54.23;95785.34;4913724;29;20107;-47
2021/01/19 10:12:36;;;;;;;3.35;1.67;;;;;;;1.35;55.20;95774.50;4928249;29;20062;-49
2021/01/19 10:15:05;;;;;;;6.10;3.40;;;;;;;1.22;55.29;95775.13;4915760;29;20064;-50
2021/01/19 10:17:33;;;;;;;3.60;1.63;;;;;;;1.48;55.35;95770.41;4917447;29;20051;-48
2021/01/19 10:20:10;;;;;;;5.50;2.00;;;;;;;1.91;54.59;95760.72;4914273;29;20052;-49
2021/01/19 10:22:42;;;;;;;3.00;1.35;;;;;;;1.74;54.81;95757.66;4928031;29;20048;-47
2021/01/19 10:25:10;;;;;;;2.95;1.67;;;;;;;1.87;54.63;95747.13;4914353;29;20502;-50
2021/01/19 10:27:44;;;;;;;3.13;1.70;;;;;;;2.04;53.46;95748.59;4913133;29;20059;-47
2021/01/19 10:30:12;;;;;;;5.50;1.65;;;;;;;2.03;53.53;95750.47;4913981;29;20063;-48
2021/01/19 10:32:47;;;;;;;1.95;1.30;;;;;;;2.17;53.20;95723.09;4914260;29;20083;-48
2021/01/19 10:35:25;;;;;;;2.63;1.42;;;;;;;2.16;53.05;95742.88;4917185;29;20048;-51
2021/01/19 10:37:54;;;;;;;2.70;1.42;;;;;;;2.13;53.52;95749.56;4916401;29;20082;-52
2021/01/19 10:40:21;;;;;;;5.00;1.80;;;;;;;2.26;52.38;95738.22;4912051;29;20055;-52
2021/01/19 10:42:47;;;;;;;4.30;1.45;;;;;;;2.54;52.61;95736.56;4913970;29;20052;-49
2021/01/19 10:45:30;;;;;;;4.18;1.40;;;;;;;2.52;52.89;95737.91;4912594;29;20600;-48
2021/01/19 10:47:59;;;;;;;8.60;3.03;;;;;;;2.85;50.95;95744.19;4912553;29;20133;-52
2021/01/19 10:50:31;;;;;;;4.00;1.80;;;;;;;2.69;52.64;95742.78;4912211;29;20413;-48
2021/01/19 10:53:03;;;;;;;5.57;2.22;;;;;;;2.61;52.44;95743.44;4915151;29;20055;-48
2021/01/19 10:55:34;;;;;;;16.52;6.55;;;;;;;2.58;52.13;95724.22;4913051;29;20126;-48
2021/01/19 10:58:02;;;;;;;8.55;4.25;;;;;;;3.04;51.92;95736.97;4912614;29;20048;-49
2021/01/19 11:00:31;;;;;;;6.32;2.38;;;;;;;3.20;50.40;95739.44;4912603;29;20540;-47
2021/01/19 11:02:57;;;;;;;5.38;2.28;;;;;;;3.20;50.88;95736.78;4914059;29;20505;-47
2021/01/19 11:05:25;;;;;;;2.63;1.50;;;;;;;3.18;51.91;95730.91;4912060;29;20191;-48
2021/01/19 11:07:54;;;;;;;3.22;1.30;;;;;;;3.12;51.74;95732.06;4911940;29;20052;-48
2021/01/19 11:10:22;;;;;;;2.88;1.20;;;;;;;3.04;51.65;95714.81;4911648;29;20083;-47
2021/01/19 11:12:51;;;;;;;1.25;0.95;;;;;;;2.99;50.74;95707.66;4914470;29;20421;-47
2021/01/19 11:15:18;;;;;;;1.52;1.02;;;;;;;3.46;49.36;95681.81;4913628;29;20123;-49
2021/01/19 11:17:51;;;;;;;2.10;1.08;;;;;;;3.84;48.79;95694.28;4912140;29;20059;-49
2021/01/19 11:20:18;;;;;;;;;;;;;;;4.13;48.69;95694.03;4911072;29;20601;-49
2021/01/19 11:22:46;;;;;;;4.72;1.50;;;;;;;4.06;48.87;95690.94;4913485;29;19938;-50
2021/01/19 11:25:14;;;;;;;5.38;1.98;;;;;;;4.18;49.04;95688.56;4913198;29;20123;-49
2021/01/19 11:27:40;;;;;;;1.90;1.10;;;;;;;3.66;48.40;95661.94;4910924;29;20059;-50
2021/01/19 11:30:08;;;;;;;3.80;1.10;;;;;;;3.56;48.76;95667.47;4911565;29;20525;-48
2021/01/19 11:32:34;;;;;;;2.80;1.35;;;;;;;3.81;49.15;95666.22;4915000;29;20048;-51
2021/01/19 11:35:01;;;;;;;5.05;1.30;;;;;;;4.11;48.54;95659.50;4912446;29;20115;-52
2021/01/19 11:37:27;;;;;;;2.45;1.40;;;;;;;5.67;45.20;95657.41;4910912;29;20063;-49
2021/01/19 11:39:54;;;;;;;3.53;1.50;;;;;;;7.05;41.88;95660.84;4911753;29;20087;-52
2021/01/19 11:42:20;;;;;;;3.83;1.45;;;;;;;7.12;40.90;95653.91;4929606;29;20048;-48
2021/01/19 11:44:47;;;;;;;3.20;1.77;;;;;;;7.39;40.88;95652.00;4914188;29;20056;-50
2021/01/19 11:47:13;;;;;;;2.38;1.40;;;;;;;7.47;40.08;95629.63;4912386;29;20048;-54
2021/01/19 11:49:49;;;;;;;2.45;1.50;;;;;;;9.41;36.88;95627.22;4911731;29;20048;-49
2021/01/19 11:52:19;;;;;;;2.33;1.20;;;;;;;9.37;35.13;95608.19;4927305;29;20054;-48